Time;durP1;ratioP1;P1;durP2;ratioP2;P2;SDS_P1;SDS_P2;PMS_P1;PMS_P2;Temp;Humidity;BMP_temperature;BMP_pressure;BME280_temperature;BME280_humidity;BME280_pressure;Samples;Min_cycle;Max_cycle;Signal;HPM_P1;HPM_P2
2022/10/03 00:00:25;;;;;;;9.97;2.47;;;;;;;-145.18;100.00;46660.41;6243418;23;20229;-71
2022/10/03 00:03:18;;;;;;;8.47;2.03;;;;;;;-145.18;100.00;46660.41;6242207;23;20241;-71
2022/10/03 00:05:59;;;;;;;16.80;3.20;;;;;;;-145.18;100.00;46658.44;6242775;23;20007;-72
2022/10/03 00:08:35;;;;;;;11.33;2.73;;;;;;;-145.18;100.00;46662.34;6243153;23;20221;-71
2022/10/03 00:11:26;;;;;;;13.33;2.23;;;;;;;-145.18;100.00;46660.41;6243190;23;20245;-72
2022/10/03 00:14:13;;;;;;;13.80;3.47;;;;;;;-145.18;100.00;46656.50;6242861;23;20230;-71
2022/10/03 00:16:47;;;;;;;9.40;2.50;;;;;;;-145.18;100.00;46656.50;6242583;23;20261;-71
2022/10/03 00:19:18;;;;;;;11.63;2.00;;;;;;;-145.18;100.00;46656.50;6243242;23;20229;-71
2022/10/03 00:22:12;;;;;;;15.80;3.40;;;;;;;-145.18;100.00;46654.53;6242416;23;20224;-71
2022/10/03 00:24:55;;;;;;;12.03;2.73;;;;;;;-145.18;100.00;46662.34;6243214;23;20268;-72
2022/10/03 00:27:37;;;;;;;9.43;2.23;;;;;;;-145.18;100.00;46652.59;6242601;23;20653;-71
2022/10/03 00:30:17;;;;;;;10.17;2.70;;;;;;;-145.18;100.00;46654.53;6243064;23;20680;-71
2022/10/03 00:32:57;;;;;;;10.40;2.77;;;;;;;-145.18;100.00;46658.44;6242218;23;20225;-71
2022/10/03 00:35:51;;;;;;;13.00;3.23;;;;;;;-145.18;100.00;46658.44;6242890;23;20218;-71
2022/10/03 00:38:40;;;;;;;13.23;2.00;;;;;;;-145.18;100.00;46660.41;6242902;23;20355;-71
2022/10/03 00:41:11;;;;;;;14.50;2.07;;;;;;;-145.18;100.00;46656.50;6243227;23;20221;-71
2022/10/03 00:44:15;;;;;;;15.13;2.63;;;;;;;-145.18;100.00;46656.50;6242462;23;20228;-71
2022/10/03 00:46:49;;;;;;;7.73;2.10;;;;;;;-145.18;100.00;46654.53;6241886;23;20226;-71
2022/10/03 00:49:33;;;;;;;11.83;2.00;;;;;;;-145.18;100.00;46650.63;6243022;23;20229;-71
2022/10/03 00:52:24;;;;;;;13.13;3.03;;;;;;;-145.18;100.00;46654.53;6242124;23;20245;-72
2022/10/03 00:54:59;;;;;;;12.97;2.20;;;;;;;-145.18;100.00;46656.50;6226299;23;20240;-71
2022/10/03 00:57:49;;;;;;;11.70;2.00;;;;;;;-145.18;100.00;46656.50;6242540;23;20232;-71
2022/10/03 01:00:27;;;;;;;5.27;1.53;;;;;;;-145.18;100.00;46656.50;6243231;23;20244;-71
2022/10/03 01:03:21;;;;;;;9.90;2.30;;;;;;;-145.18;100.00;46658.44;6241629;23;20302;-71
2022/10/03 01:06:16;;;;;;;9.97;2.30;;;;;;;-145.18;100.00;46656.50;6242896;23;20237;-71
2022/10/03 01:08:48;;;;;;;13.37;2.37;;;;;;;-145.18;100.00;46654.53;6238630;23;20706;-71
2022/10/03 01:11:48;;;;;;;12.17;2.30;;;;;;;-145.18;100.00;46656.50;6243143;23;20253;-71
2022/10/03 01:14:41;;;;;;;10.07;2.37;;;;;;;-145.18;100.00;46652.59;6242803;23;20596;-71
2022/10/03 01:17:34;;;;;;;9.90;2.40;;;;;;;-145.18;100.00;46654.53;6242525;23;20233;-71
2022/10/03 01:20:18;;;;;;;8.80;2.37;;;;;;;-145.18;100.00;46654.53;6242760;23;20225;-71
2022/10/03 01:23:28;;;;;;;6.40;1.60;;;;;;;-145.18;100.00;46652.59;6242102;23;20253;-71
2022/10/03 01:26:15;;;;;;;5.60;1.37;;;;;;;-145.18;100.00;46656.50;6120051;23;20232;-71
2022/10/03 01:32:02;;;;;;;6.87;1.70;;;;;;;-145.18;100.00;46654.53;6229376;23;20273;-70
2022/10/03 01:34:37;;;;;;;3.77;1.30;;;;;;;-145.18;100.00;46656.50;6243445;23;20387;-71
2022/10/03 01:37:21;;;;;;;8.23;1.83;;;;;;;-145.18;100.00;46656.50;6244046;23;20293;-71
2022/10/03 01:39:54;;;;;;;10.30;1.40;;;;;;;-145.18;100.00;46648.69;6213579;23;20269;-71
2022/10/03 01:42:51;;;;;;;14.70;2.20;;;;;;;-145.18;100.00;46652.59;6213842;23;20562;-71
2022/10/03 01:45:37;;;;;;;9.75;3.05;;;;;;;-145.18;100.00;46654.53;6214855;23;20218;-71
2022/10/03 01:48:13;;;;;;;22.15;2.50;;;;;;;-145.18;100.00;46650.63;6213696;23;20020;-71
2022/10/03 01:50:59;;;;;;;8.90;2.03;;;;;;;-145.18;100.00;46652.59;6214174;23;20333;-71
2022/10/03 01:53:40;;;;;;;11.17;2.83;;;;;;;-145.18;100.00;46652.59;6214091;23;20281;-71
2022/10/03 01:56:26;;;;;;;18.03;2.50;;;;;;;-145.18;100.00;46656.50;6214454;23;20679;-70
2022/10/03 01:58:57;;;;;;;;;;;;;;;-145.18;100.00;46652.59;6214202;23;20218;-70
2022/10/03 02:01:25;;;;;;;9.13;2.77;;;;;;;-145.18;100.00;46658.44;6206148;23;19997;-88
2022/10/03 02:04:05;;;;;;;10.20;1.70;;;;;;;-145.18;100.00;46656.50;6170603;23;20259;-70
2022/10/03 02:06:53;;;;;;;5.53;1.10;;;;;;;-145.18;100.00;46660.41;6153756;23;20711;-70
2022/10/03 02:09:35;;;;;;;6.37;1.33;;;;;;;-145.18;100.00;46656.50;6154215;23;20227;-70
2022/10/03 02:12:15;;;;;;;7.37;1.30;;;;;;;-145.18;100.00;46656.50;6154046;23;20271;-70
2022/10/03 02:14:52;;;;;;;6.40;1.50;;;;;;;-145.18;100.00;46658.44;6154500;23;20707;-71
2022/10/03 02:17:29;;;;;;;5.87;1.23;;;;;;;-145.18;100.00;46660.41;6153943;23;20222;-70
2022/10/03 02:20:06;;;;;;;3.97;1.40;;;;;;;-145.18;100.00;46658.44;6154133;23;20227;-70
2022/10/03 02:22:54;;;;;;;7.47;1.60;;;;;;;-145.18;100.00;46654.53;6153808;23;20231;-70
2022/10/03 02:25:34;;;;;;;5.03;1.30;;;;;;;-145.18;100.00;46660.41;6154462;23;20248;-70
2022/10/03 02:28:21;;;;;;;6.23;1.63;;;;;;;-145.18;100.00;46658.44;6153964;23;20278;-70
2022/10/03 02:31:31;;;;;;;7.77;1.57;;;;;;;-145.18;100.00;46660.41;6153386;23;20314;-70
2022/10/03 02:34:22;;;;;;;7.23;1.20;;;;;;;-145.18;100.00;46654.53;6153898;23;20228;-70
2022/10/03 02:37:07;;;;;;;8.90;1.47;;;;;;;-145.18;100.00;46658.44;6141870;23;20684;-70
2022/10/03 02:40:04;;;;;;;6.57;1.37;;;;;;;-145.18;100.00;46658.44;6154543;23;20228;-70
2022/10/03 02:42:29;;;;;;;;;;;;;;;-145.18;100.00;46654.53;6153817;23;20224;-70
2022/10/03 02:45:22;;;;;;;2.87;1.10;;;;;;;-145.18;100.00;46662.34;6153957;23;19912;-70
2022/10/03 02:48:15;;;;;;;3.27;1.47;;;;;;;-145.18;100.00;46660.41;6153369;23;20073;-70
2022/10/03 02:50:58;;;;;;;6.20;1.87;;;;;;;-145.18;100.00;46658.44;6153879;23;20252;-70
2022/10/03 02:53:47;;;;;;;11.33;1.90;;;;;;;-145.18;100.00;46654.53;6153795;23;20228;-70
2022/10/03 02:56:43;;;;;;;10.90;2.60;;;;;;;-145.18;100.00;46662.34;6153948;23;20407;-70
2022/10/03 02:59:24;;;;;;;8.07;1.83;;;;;;;-145.18;100.00;46656.50;6153699;23;20250;-70
2022/10/03 03:02:24;;;;;;;5.77;1.77;;;;;;;-145.18;100.00;46658.44;6153807;23;20227;-71
2022/10/03 03:05:26;;;;;;;9.37;1.50;;;;;;;-145.18;100.00;46662.34;6153592;23;20335;-71
2022/10/03 03:08:32;;;;;;;7.37;1.87;;;;;;;-145.18;100.00;46660.41;6153114;23;20239;-71
2022/10/03 03:11:18;;;;;;;7.07;1.88;;;;;;;-145.18;100.00;46650.63;6153847;23;20243;-71
2022/10/03 03:14:01;;;;;;;7.70;1.70;;;;;;;-145.18;100.00;46658.44;6147415;23;20035;-70
2022/10/03 03:16:48;;;;;;;8.97;1.53;;;;;;;-145.18;100.00;46656.50;6153836;23;20084;-71
2022/10/03 03:19:51;;;;;;;9.30;1.60;;;;;;;-145.18;100.00;46662.34;6153231;23;20224;-71
2022/10/03 03:22:43;;;;;;;7.93;1.67;;;;;;;-145.18;100.00;46656.50;6153392;23;20293;-71
2022/10/03 03:25:27;;;;;;;7.10;1.47;;;;;;;-145.18;100.00;46658.44;6153644;23;20224;-71
2022/10/03 03:28:24;;;;;;;5.97;1.43;;;;;;;-145.18;100.00;46654.53;6152778;23;20644;-71
2022/10/03 03:31:16;;;;;;;7.57;1.60;;;;;;;-145.18;100.00;46660.41;6153266;23;20251;-71
2022/10/03 03:34:05;;;;;;;7.43;2.20;;;;;;;-145.18;100.00;46662.34;6151358;23;20244;-71
2022/10/03 03:37:05;;;;;;;9.57;2.13;;;;;;;-145.18;100.00;46658.44;6153734;23;20231;-71
2022/10/03 03:40:05;;;;;;;8.80;1.90;;;;;;;-145.18;100.00;46660.41;6150852;23;20299;-70
2022/10/03 03:43:07;;;;;;;8.53;1.73;;;;;;;-145.18;100.00;46664.31;6153015;23;20230;-71
2022/10/03 03:45:41;;;;;;;13.47;2.63;;;;;;;-145.18;100.00;46656.50;6151564;23;20235;-70
2022/10/03 03:48:41;;;;;;;14.03;2.00;;;;;;;-145.18;100.00;46656.50;6152643;23;20223;-70
2022/10/03 03:51:18;;;;;;;4.63;1.70;;;;;;;-145.18;100.00;46664.31;6172677;23;20322;-71
2022/10/03 03:53:52;;;;;;;6.03;1.90;;;;;;;-145.18;100.00;46660.41;6150762;23;20306;-71
2022/10/03 03:56:20;;;;;;;6.33;1.63;;;;;;;-145.18;100.00;46658.44;6152671;23;20258;-70
2022/10/03 03:58:54;;;;;;;8.90;2.20;;;;;;;-145.18;100.00;46654.53;6151818;23;20220;-71
2022/10/03 04:01:40;;;;;;;5.87;2.00;;;;;;;-145.18;100.00;46658.44;6152997;23;20242;-70
2022/10/03 04:04:26;;;;;;;7.05;1.75;;;;;;;-145.18;100.00;46658.44;6152278;23;21095;-70
2022/10/03 04:07:02;;;;;;;12.03;1.90;;;;;;;-145.18;100.00;46654.53;6152479;23;20100;-70
2022/10/03 04:10:04;;;;;;;4.80;1.77;;;;;;;-145.18;100.00;46656.50;6152473;23;20228;-70
2022/10/03 04:13:00;;;;;;;12.30;2.03;;;;;;;-145.18;100.00;46658.44;6151855;23;20009;-70
2022/10/03 04:15:47;;;;;;;19.85;2.75;;;;;;;-145.18;100.00;46660.41;6153119;23;20271;-70
2022/10/03 04:18:59;;;;;;;8.60;2.03;;;;;;;-145.18;100.00;46658.44;6152799;23;20080;-71
2022/10/03 04:21:49;;;;;;;5.87;2.20;;;;;;;-145.18;100.00;46652.59;6153157;23;20211;-71
2022/10/03 04:24:33;;;;;;;23.00;3.10;;;;;;;-145.18;100.00;46658.44;6152545;23;20703;-71
2022/10/03 04:27:22;;;;;;;14.20;3.57;;;;;;;-145.18;100.00;46656.50;6152740;23;20250;-71
2022/10/03 04:29:47;;;;;;;22.80;3.67;;;;;;;-145.18;100.00;46660.41;6152869;23;20238;-70
2022/10/03 04:32:25;;;;;;;6.70;2.67;;;;;;;-145.18;100.00;46656.50;6150622;23;20231;-71
2022/10/03 04:35:22;;;;;;;23.27;4.10;;;;;;;-145.18;100.00;46654.53;6151510;23;20013;-71
2022/10/03 04:38:22;;;;;;;10.48;2.80;;;;;;;-145.18;100.00;46656.50;6150684;23;20232;-70
2022/10/03 04:41:08;;;;;;;6.47;2.57;;;;;;;-145.18;100.00;46652.59;6125172;23;20454;-71
2022/10/03 04:43:43;;;;;;;7.60;2.17;;;;;;;-145.18;100.00;46650.63;6151656;23;20219;-71
2022/10/03 04:46:17;;;;;;;5.25;1.90;;;;;;;-145.18;100.00;46652.59;6153195;23;20020;-71
2022/10/03 04:49:13;;;;;;;8.50;2.10;;;;;;;-145.18;100.00;46656.50;6151366;23;20009;-71
2022/10/03 04:51:57;;;;;;;3.30;1.83;;;;;;;-145.18;100.00;46658.44;6152562;23;20259;-71
2022/10/03 04:54:47;;;;;;;5.43;1.83;;;;;;;-145.18;100.00;46656.50;6151539;23;20013;-70
2022/10/03 04:57:46;;;;;;;12.13;1.80;;;;;;;-145.18;100.00;46652.59;6152822;23;20236;-71
2022/10/03 05:00:40;;;;;;;21.80;2.17;;;;;;;-145.18;100.00;46652.59;6151824;23;20290;-70
2022/10/03 05:03:20;;;;;;;8.97;2.07;;;;;;;-145.18;100.00;46656.50;6148861;23;20254;-70
2022/10/03 05:05:54;;;;;;;7.83;2.50;;;;;;;-145.18;100.00;46644.78;6150177;23;20231;-71
2022/10/03 05:08:47;;;;;;;8.50;2.67;;;;;;;-145.18;100.00;46656.50;6152367;23;20558;-71
2022/10/03 05:11:33;;;;;;;10.03;2.43;;;;;;;-145.18;100.00;46654.53;6152437;23;20901;-71
2022/10/03 05:14:23;;;;;;;13.48;2.70;;;;;;;-145.18;100.00;46654.53;6152014;23;20560;-71
2022/10/03 05:17:39;;;;;;;11.50;3.00;;;;;;;-145.18;100.00;46648.69;6152390;23;20009;-70
2022/10/03 05:20:39;;;;;;;15.02;2.35;;;;;;;-145.18;100.00;46658.44;6119889;23;20304;-70
2022/10/03 05:23:05;;;;;;;9.87;2.93;;;;;;;-145.18;100.00;46654.53;6119343;23;20096;-71
2022/10/03 05:26:10;;;;;;;9.97;1.93;;;;;;;-145.18;100.00;46652.59;6145182;23;20298;-70
2022/10/03 05:28:44;;;;;;;4.93;1.50;;;;;;;-145.18;100.00;46656.50;6142124;23;20005;-71
2022/10/03 05:31:28;;;;;;;10.97;2.67;;;;;;;-145.18;100.00;46650.63;6151980;23;20338;-71
2022/10/03 05:34:12;;;;;;;20.03;2.70;;;;;;;-145.18;100.00;46650.63;6150556;23;20224;-71
2022/10/03 05:37:11;;;;;;;5.47;2.80;;;;;;;-145.18;100.00;46654.53;6152781;23;20232;-71
2022/10/03 05:40:04;;;;;;;10.57;2.57;;;;;;;-145.18;100.00;46652.59;6151839;23;20219;-71
2022/10/03 05:42:48;;;;;;;10.93;3.00;;;;;;;-145.18;100.00;46648.69;6152264;23;20273;-71
2022/10/03 05:45:23;;;;;;;12.87;3.63;;;;;;;-145.18;100.00;46652.59;6152466;23;20772;-70
2022/10/03 05:48:07;;;;;;;8.68;2.95;;;;;;;-145.18;100.00;46652.59;6151942;23;20556;-71
2022/10/03 05:50:35;;;;;;;11.67;3.20;;;;;;;-145.18;100.00;46650.63;6152582;23;20012;-70
2022/10/03 05:53:15;;;;;;;10.70;2.93;;;;;;;-145.18;100.00;46654.53;6152076;23;20227;-71
2022/10/03 05:55:55;;;;;;;12.40;3.70;;;;;;;-145.18;100.00;46652.59;6152430;23;20695;-70
2022/10/03 05:58:32;;;;;;;10.53;3.13;;;;;;;-145.18;100.00;46652.59;6152192;23;20231;-71
2022/10/03 06:01:51;;;;;;;7.20;2.77;;;;;;;-145.18;100.00;46648.69;6152304;23;20251;-70
2022/10/03 06:04:16;;;;;;;13.13;3.00;;;;;;;-145.18;100.00;46650.63;6143719;23;20275;-70
2022/10/03 06:07:04;;;;;;;19.83;3.30;;;;;;;-145.18;100.00;46654.53;6152797;23;20239;-70
2022/10/03 06:10:02;;;;;;;8.60;3.53;;;;;;;-145.18;100.00;46654.53;6151675;23;20087;-70
2022/10/03 06:12:47;;;;;;;8.57;3.33;;;;;;;-145.18;100.00;46652.59;6152269;23;20853;-71
2022/10/03 06:15:53;;;;;;;5.97;3.00;;;;;;;-145.18;100.00;46652.59;6152567;23;20242;-70
2022/10/03 06:18:24;;;;;;;5.23;2.83;;;;;;;-145.18;100.00;46652.59;6149982;23;20267;-70
2022/10/03 06:21:15;;;;;;;11.10;3.70;;;;;;;-145.18;100.00;46650.63;6151771;23;20228;-71
2022/10/03 06:24:06;;;;;;;15.17;4.77;;;;;;;-145.18;100.00;46650.63;6153484;23;20683;-70
2022/10/03 06:26:59;;;;;;;8.13;3.17;;;;;;;-145.18;100.00;46654.53;6154247;23;20235;-70
2022/10/03 06:29:27;;;;;;;9.60;3.70;;;;;;;-145.18;100.00;46652.59;6154026;23;20220;-70
2022/10/03 06:32:02;;;;;;;9.07;3.83;;;;;;;-145.18;100.00;46650.63;6153728;23;20688;-70
2022/10/03 06:34:49;;;;;;;11.38;3.75;;;;;;;-145.18;100.00;46652.59;6153770;23;20290;-71
2022/10/03 06:37:39;;;;;;;10.60;3.90;;;;;;;-145.18;100.00;46646.72;6154040;23;20009;-70
2022/10/03 06:40:05;;;;;;;10.37;4.17;;;;;;;-145.18;100.00;46656.50;6152192;23;20538;-70
2022/10/03 06:42:56;;;;;;;14.80;4.30;;;;;;;-145.18;100.00;46648.69;6153933;23;20227;-71
2022/10/03 06:45:49;;;;;;;9.53;3.87;;;;;;;-145.18;100.00;46656.50;6154254;23;20323;-70
2022/10/03 06:48:29;;;;;;;12.17;4.33;;;;;;;-145.18;100.00;46654.53;6153824;23;20223;-70
2022/10/03 06:51:19;;;;;;;11.40;4.30;;;;;;;-145.18;100.00;46648.69;6154049;23;20244;-71
2022/10/03 06:53:54;;;;;;;9.80;4.10;;;;;;;-145.18;100.00;46652.59;6153543;23;20347;-71
2022/10/03 06:56:44;;;;;;;9.90;4.60;;;;;;;-145.18;100.00;46654.53;6154091;23;20001;-71
2022/10/03 06:59:37;;;;;;;16.00;4.87;;;;;;;-145.18;100.00;46650.63;6153546;23;20238;-71
2022/10/03 07:02:22;;;;;;;18.20;4.97;;;;;;;-145.18;100.00;46650.63;6153657;23;20465;-71
2022/10/03 07:05:25;;;;;;;13.63;4.33;;;;;;;-145.18;100.00;46654.53;6153258;23;20642;-71
2022/10/03 07:08:09;;;;;;;7.73;4.20;;;;;;;-145.18;100.00;46648.69;6153212;23;20043;-71
2022/10/03 07:10:52;;;;;;;9.90;4.13;;;;;;;-145.18;100.00;46654.53;6153840;23;20106;-71
2022/10/03 07:13:49;;;;;;;9.10;3.97;;;;;;;-145.18;100.00;46652.59;6153513;23;20005;-71
2022/10/03 07:16:52;;;;;;;12.60;4.83;;;;;;;-145.18;100.00;46648.69;6154008;23;20001;-71
2022/10/03 07:19:45;;;;;;;11.97;5.37;;;;;;;-145.18;100.00;46650.63;6153701;23;20347;-71
2022/10/03 07:22:29;;;;;;;13.93;4.80;;;;;;;-145.18;100.00;46648.69;6153733;23;20044;-71
2022/10/03 07:25:42;;;;;;;15.30;5.03;;;;;;;-145.18;100.00;46648.69;6152969;23;20036;-71
2022/10/03 07:28:52;;;;;;;14.60;4.90;;;;;;;-145.18;100.00;46652.59;6153707;23;20553;-71
2022/10/03 07:31:32;;;;;;;11.43;4.80;;;;;;;-145.18;100.00;46650.63;6121045;23;20131;-70
2022/10/03 07:34:12;;;;;;;19.80;5.83;;;;;;;-145.18;100.00;46646.72;6120521;23;20459;-71
2022/10/03 07:40:12;;;;;;;19.60;6.53;;;;;;;-145.18;100.00;46650.63;6152805;23;20390;-71
2022/10/03 07:43:15;;;;;;;16.67;5.43;;;;;;;-145.18;100.00;46652.59;6153422;23;20049;-71
2022/10/03 07:45:44;;;;;;;13.27;6.33;;;;;;;-145.18;100.00;46648.69;6153679;23;20011;-71
2022/10/03 07:48:41;;;;;;;19.40;6.83;;;;;;;-145.18;100.00;46652.59;6153052;23;20334;-71
2022/10/03 07:51:30;;;;;;;18.65;5.32;;;;;;;-145.18;100.00;46646.72;6153136;23;20005;-71
2022/10/03 07:54:08;;;;;;;11.10;5.70;;;;;;;-145.18;100.00;46644.78;6153064;23;20029;-71
2022/10/03 07:56:39;;;;;;;25.30;6.57;;;;;;;-145.18;100.00;46652.59;6152107;23;20001;-71
2022/10/03 07:59:22;;;;;;;26.97;6.37;;;;;;;-145.18;100.00;46648.69;6151114;23;20020;-71
2022/10/03 08:01:56;;;;;;;26.47;7.40;;;;;;;-145.18;100.00;46652.59;6150705;23;20009;-71
2022/10/03 08:04:57;;;;;;;15.37;6.33;;;;;;;-145.18;100.00;46652.59;6151227;23;20017;-71
2022/10/03 08:07:46;;;;;;;17.33;6.53;;;;;;;-145.18;100.00;46648.69;6153366;23;20320;-71
2022/10/03 08:10:15;;;;;;;14.10;6.03;;;;;;;-145.18;100.00;46650.63;6152844;23;20067;-71
2022/10/03 08:12:50;;;;;;;18.83;6.93;;;;;;;-145.18;100.00;46652.59;6152235;23;20002;-71
2022/10/03 08:15:53;;;;;;;17.77;6.38;;;;;;;-145.18;100.00;46648.69;6152588;23;20582;-71
2022/10/03 08:19:06;;;;;;;20.47;6.33;;;;;;;-145.18;100.00;46650.63;6150996;23;20356;-71
2022/10/03 08:21:53;;;;;;;15.83;6.50;;;;;;;-145.18;100.00;46650.63;6061930;23;20018;-71
2022/10/03 08:24:27;;;;;;;16.57;6.37;;;;;;;-145.18;100.00;46654.53;6062256;23;20011;-71
2022/10/03 08:27:08;;;;;;;18.17;5.57;;;;;;;-145.18;100.00;46654.53;6121910;23;20431;-71
2022/10/03 08:29:49;;;;;;;21.83;5.57;;;;;;;-145.18;100.00;46656.50;6152561;23;20060;-71
2022/10/03 08:32:21;;;;;;;16.40;5.80;;;;;;;-145.18;100.00;46654.53;6152706;23;20092;-71
2022/10/03 08:34:58;;;;;;;18.53;6.40;;;;;;;-145.18;100.00;46658.44;6152422;23;20002;-71
2022/10/03 08:38:02;;;;;;;11.97;4.50;;;;;;;-145.18;100.00;46660.41;6153114;23;20458;-71
2022/10/03 08:40:52;;;;;;;12.10;4.20;;;;;;;-145.18;100.00;46666.25;6141099;23;20016;-71
2022/10/03 08:43:45;;;;;;;15.83;4.53;;;;;;;-145.18;100.00;46664.31;6152344;23;20469;-72
2022/10/03 08:46:30;;;;;;;9.57;3.80;;;;;;;-145.18;100.00;46662.34;6151447;23;20072;-72
2022/10/03 08:49:34;;;;;;;14.43;3.67;;;;;;;-145.18;100.00;46670.16;6152276;23;20076;-71
2022/10/03 08:52:34;;;;;;;11.50;4.33;;;;;;;-145.18;100.00;46674.06;6135885;23;20518;-71
2022/10/03 08:55:29;;;;;;;19.43;4.33;;;;;;;-145.18;100.00;46677.97;6152005;23;20032;-72
2022/10/03 08:57:57;;;;;;;12.37;3.00;;;;;;;-145.18;100.00;46674.06;6140704;23;20025;-72
2022/10/03 09:00:45;;;;;;;18.50;2.87;;;;;;;-145.18;100.00;46676.03;6152693;23;20005;-72
2022/10/03 09:03:30;;;;;;;14.00;3.60;;;;;;;-145.18;100.00;46676.03;6152169;23;20040;-72
2022/10/03 09:06:23;;;;;;;10.77;2.43;;;;;;;-145.18;100.00;46685.78;6152938;23;20032;-72
2022/10/03 09:09:06;;;;;;;10.07;2.30;;;;;;;-145.18;100.00;46681.88;6152334;23;20013;-72
2022/10/03 09:11:48;;;;;;;6.97;2.00;;;;;;;-145.18;100.00;46689.69;6152541;23;20080;-72
2022/10/03 09:14:45;;;;;;;9.40;2.23;;;;;;;-145.18;100.00;46685.78;6152413;23;20435;-72
2022/10/03 09:17:28;;;;;;;10.10;2.17;;;;;;;-145.18;100.00;46683.84;6152920;23;20002;-72
2022/10/03 09:20:41;;;;;;;9.33;2.37;;;;;;;-145.18;100.00;46681.88;6151475;23;20001;-72
2022/10/03 09:23:32;;;;;;;8.00;2.40;;;;;;;-145.18;100.00;46679.94;6119776;23;20466;-72
2022/10/03 09:26:19;;;;;;;14.27;2.67;;;;;;;-145.18;100.00;46679.94;6115276;23;20011;-72
2022/10/03 09:29:02;;;;;;;11.17;2.40;;;;;;;-145.18;100.00;46676.03;6145248;23;20010;-72
2022/10/03 09:31:50;;;;;;;9.57;2.50;;;;;;;-145.18;100.00;46656.50;6152776;23;20457;-72
2022/10/03 09:34:34;;;;;;;10.33;2.20;;;;;;;-145.18;100.00;46642.81;6152150;23;20052;-72
2022/10/03 09:37:30;;;;;;;12.13;1.83;;;;;;;-145.18;100.00;46619.38;6152444;23;20005;-72
2022/10/03 09:40:14;;;;;;;12.27;2.30;;;;;;;-145.18;100.00;46633.06;6152248;23;20017;-72
2022/10/03 09:43:08;;;;;;;9.77;2.00;;;;;;;-145.18;100.00;46601.78;6152979;23;20052;-73
2022/10/03 09:45:52;;;;;;;8.40;1.57;;;;;;;-145.18;100.00;46566.63;6138104;23;20017;-72
2022/10/03 09:48:49;;;;;;;8.97;2.10;;;;;;;-145.18;100.00;46562.72;6152615;23;20549;-72
2022/10/03 09:51:20;;;;;;;9.07;2.83;;;;;;;-145.18;100.00;46566.63;6152236;23;20017;-72
2022/10/03 09:54:21;;;;;;;9.70;2.30;;;;;;;-145.18;100.00;46566.63;6152403;23;20006;-72
2022/10/03 09:56:52;;;;;;;7.87;1.87;;;;;;;-145.18;100.00;46562.72;6153223;23;20001;-72
2022/10/03 09:59:17;;;;;;;13.33;2.30;;;;;;;-145.18;100.00;46574.44;6154098;23;20009;-72
2022/10/03 10:01:52;;;;;;;11.33;2.37;;;;;;;-145.18;100.00;46576.41;6154280;23;20035;-72
2022/10/03 10:04:48;;;;;;;9.57;2.10;;;;;;;-145.18;100.00;46574.44;6153500;23;20074;-73
2022/10/03 10:07:48;;;;;;;6.50;2.08;;;;;;;-145.18;100.00;46582.25;6154429;23;20029;-72
2022/10/03 10:10:47;;;;;;;12.73;2.53;;;;;;;-145.18;100.00;46590.06;6141312;23;20017;-72
2022/10/03 10:13:27;;;;;;;13.10;2.80;;;;;;;-145.18;100.00;46578.34;6154013;23;20490;-72
2022/10/03 10:16:21;;;;;;;11.37;2.80;;;;;;;-145.18;100.00;46584.22;6153912;23;20037;-72
2022/10/03 10:19:16;;;;;;;13.80;2.33;;;;;;;-145.18;100.00;46592.03;6153562;23;20020;-72
2022/10/03 10:22:17;;;;;;;10.37;2.90;;;;;;;-145.18;100.00;46584.22;6154267;23;20084;-72
2022/10/03 10:25:00;;;;;;;8.57;2.60;;;;;;;-145.18;100.00;46611.56;6153723;23;20064;-72
2022/10/03 10:27:54;;;;;;;8.80;2.27;;;;;;;-145.18;100.00;46611.56;6154167;23;20087;-73
2022/10/03 10:30:44;;;;;;;9.67;2.03;;;;;;;-145.18;100.00;46609.59;6154068;23;20005;-73
2022/10/03 10:33:43;;;;;;;12.23;2.37;;;;;;;-145.18;100.00;46607.66;6153173;23;20020;-72
2022/10/03 10:36:27;;;;;;;9.40;1.90;;;;;;;-145.18;100.00;46593.97;6152217;23;20009;-72
2022/10/03 10:39:29;;;;;;;8.57;2.17;;;;;;;-145.18;100.00;46592.03;6153070;23;20618;-72
2022/10/03 10:41:55;;;;;;;15.63;2.47;;;;;;;-145.18;100.00;46590.06;6154028;23;20060;-72
2022/10/03 10:44:23;;;;;;;12.40;2.97;;;;;;;-145.18;100.00;46595.94;6153427;23;20001;-73
2022/10/03 10:47:13;;;;;;;10.43;2.20;;;;;;;-145.18;100.00;46601.78;6153558;23;20033;-73
2022/10/03 10:50:14;;;;;;;10.37;2.80;;;;;;;-145.18;100.00;46593.97;6153026;23;20001;-72
2022/10/03 10:53:49;;;;;;;7.23;2.30;;;;;;;-145.18;100.00;46595.94;6153833;23;20033;-72
2022/10/03 10:56:37;;;;;;;14.93;2.10;;;;;;;-145.18;100.00;46592.03;6092115;23;20010;-72
2022/10/03 10:59:40;;;;;;;7.47;1.93;;;;;;;-145.18;100.00;46617.41;6147723;23;20051;-72
2022/10/03 11:02:23;;;;;;;11.27;2.03;;;;;;;-145.18;100.00;46640.88;6153662;23;20016;-73
2022/10/03 11:05:17;;;;;;;10.20;1.87;;;;;;;-145.18;100.00;46621.31;6152859;23;20024;-72
2022/10/03 11:08:03;;;;;;;7.43;1.90;;;;;;;-145.18;100.00;46674.06;6153398;23;20513;-72
2022/10/03 11:10:51;;;;;;;9.38;2.20;;;;;;;-145.18;100.00;46699.47;6153167;23;20405;-72
2022/10/03 11:13:51;;;;;;;8.10;1.90;;;;;;;-145.18;100.00;46765.88;6153845;23;20017;-73
2022/10/03 11:16:36;;;;;;;6.03;1.60;;;;;;;-145.18;100.00;46742.44;6154256;23;20080;-72
2022/10/03 11:19:25;;;;;;;10.88;2.80;;;;;;;-145.18;100.00;46683.84;6152987;23;20013;-73
2022/10/03 11:22:01;;;;;;;10.90;2.40;;;;;;;-145.18;100.00;46703.38;6153796;23;20749;-72
2022/10/03 11:24:57;;;;;;;11.45;2.20;;;;;;;-145.18;100.00;46703.38;6153681;23;20009;-73
2022/10/03 11:28:00;;;;;;;9.57;1.83;;;;;;;-145.18;100.00;46744.38;6153570;23;20084;-72
2022/10/03 11:30:56;;;;;;;10.10;2.00;;;;;;;-145.18;100.00;46961.22;6152992;23;20015;-72
2022/10/03 11:33:48;;;;;;;12.15;1.90;;;;;;;-145.18;100.00;46820.56;6153867;23;20072;-72
2022/10/03 11:36:34;;;;;;;10.00;2.00;;;;;;;-145.18;100.00;46750.25;6153304;23;20089;-72
2022/10/03 11:39:05;;;;;;;11.75;3.00;;;;;;;-145.18;100.00;46713.13;6152821;23;20013;-73
2022/10/03 11:41:47;;;;;;;12.13;2.80;;;;;;;-145.18;100.00;46713.13;6153694;23;20031;-72
2022/10/03 11:44:41;;;;;;;9.83;1.80;;;;;;;-145.18;100.00;46695.56;6153094;23;20001;-72
2022/10/03 11:47:24;;;;;;;10.57;2.07;;;;;;;-145.18;100.00;46666.25;6152946;23;20028;-73
2022/10/03 11:50:09;;;;;;;13.53;2.33;;;;;;;-145.18;100.00;46631.09;6152618;23;20477;-73
2022/10/03 11:52:51;;;;;;;14.73;3.03;;;;;;;-145.18;100.00;46617.41;6153643;23;20037;-72
2022/10/03 11:55:56;;;;;;;12.37;3.00;;;;;;;-145.18;100.00;46613.50;6153085;23;20048;-72
2022/10/03 11:58:37;;;;;;;11.77;2.30;;;;;;;-145.18;100.00;46607.66;6135726;23;20455;-72
2022/10/03 12:01:27;;;;;;;7.40;2.87;;;;;;;-145.18;100.00;46593.97;6152399;23;20001;-72
2022/10/03 12:04:16;;;;;;;10.77;1.90;;;;;;;-145.18;100.00;46599.84;6152630;23;20021;-72
2022/10/03 12:10:16;;;;;;;9.67;2.70;;;;;;;-145.18;100.00;46593.97;6152976;23;20072;-72
2022/10/03 12:12:49;;;;;;;12.83;2.43;;;;;;;-145.18;100.00;46592.03;6154190;23;20096;-72
2022/10/03 12:15:33;;;;;;;9.63;2.40;;;;;;;-145.18;100.00;46582.25;6152851;23;20012;-72
2022/10/03 12:18:04;;;;;;;18.43;3.40;;;;;;;-145.18;100.00;46572.50;6152829;23;20059;-72
2022/10/03 12:20:57;;;;;;;11.40;2.83;;;;;;;-145.18;100.00;46568.59;6152742;23;20020;-72
2022/10/03 12:23:31;;;;;;;15.13;3.97;;;;;;;-145.18;100.00;46582.25;6153305;23;20009;-72
2022/10/03 12:26:01;;;;;;;17.10;4.10;;;;;;;-145.18;100.00;46580.31;6152603;23;20005;-72
2022/10/03 12:28:43;;;;;;;13.03;3.87;;;;;;;-145.18;100.00;46592.03;6152967;23;20478;-72
2022/10/03 12:31:19;;;;;;;12.13;3.50;;;;;;;-145.18;100.00;46648.69;6152493;23;20432;-72
2022/10/03 12:34:12;;;;;;;19.40;4.17;;;;;;;-145.18;100.00;46615.47;6152902;23;20332;-72
2022/10/03 12:36:55;;;;;;;13.60;3.57;;;;;;;-145.18;100.00;46660.41;6124727;23;20009;-72
2022/10/03 12:39:46;;;;;;;12.47;3.37;;;;;;;-145.18;100.00;46664.31;6152787;23;20012;-72
2022/10/03 12:42:46;;;;;;;14.37;4.03;;;;;;;-145.18;100.00;46677.97;6153334;23;20041;-72